CheckWX is a tool to help pilots better visualize weather data.  It is not intended as a substitute for an official pre-flight weather briefing.

23:02:44 UTC

GEML TAF
Melilla Airport
Melilla, Spain
TAF GEML 192000Z 1921/2021 21005KT 9999 FEW025 TX23/2013Z TN17/2006Z BECMG 2004/2006 28013KT PROB40 TEMPO 2006/2015 28015G25KT

Oct-19@
21:00 UTC

Oct-19 @ 21:00 UTC

Oct-20@
04:00 UTC

Oct-20 @ 04:00 UTC

TAF GEML 192000Z 1921/2021 21005KT 9999 FEW025 TX23/2013Z TN17/2006Z
Wind
  • 210° at 5 KTS
Cloud Levels
  • Few at 2,500' AGL

Oct-20@
04:00 UTC

Oct-20 @ 04:00 UTC

Oct-20@
21:00 UTC

Oct-20 @ 21:00 UTC

BECMG 2004/2006 28013KT

Becoming

Becoming Conditions expected by Sun, Oct 20, 2019 @ 06:00 UTC

Wind
  • 280° at 13 KTS
Cloud Levels
  • Few at 2,500' AGL

Oct-20@
06:00 UTC

Oct-20 @ 06:00 UTC

Oct-20@
15:00 UTC

Oct-20 @ 15:00 UTC

PROB40 TEMPO 2006/2015 28015G25KT

Temporary - 40% Likelihood

Temporary - 40% Likelihood during this time.

Wind
  • 280° at 15 KTS
  • {Gusting to 25 KTS